sensor_id;sensor_type;location;lat;lon;timestamp;pressure;altitude;pressure_sealevel;temperature;humidity
75996;BME280;64681;49.738;9.004;2023-06-19T00:01:46;98909.84;;;22.03;56.35
75996;BME280;64681;49.738;9.004;2023-06-19T00:04:11;98921.16;;;22.01;56.21
75996;BME280;64681;49.738;9.004;2023-06-19T00:06:37;98918.44;;;22.01;55.91
75996;BME280;64681;49.738;9.004;2023-06-19T00:09:03;98919.28;;;21.98;56.05
75996;BME280;64681;49.738;9.004;2023-06-19T00:11:29;98920.59;;;21.90;56.45
75996;BME280;64681;49.738;9.004;2023-06-19T00:13:55;98914.53;;;21.82;55.84
75996;BME280;64681;49.738;9.004;2023-06-19T00:16:20;98915.78;;;21.77;55.97
75996;BME280;64681;49.738;9.004;2023-06-19T00:18:46;98916.47;;;21.81;56.00
75996;BME280;64681;49.738;9.004;2023-06-19T00:21:12;98917.41;;;21.95;55.10
75996;BME280;64681;49.738;9.004;2023-06-19T00:23:37;98922.41;;;21.76;56.67
75996;BME280;64681;49.738;9.004;2023-06-19T00:26:03;98922.34;;;21.56;56.87
75996;BME280;64681;49.738;9.004;2023-06-19T00:28:29;98915.44;;;21.51;56.63
75996;BME280;64681;49.738;9.004;2023-06-19T00:30:55;98914.88;;;21.64;56.51
75996;BME280;64681;49.738;9.004;2023-06-19T00:33:21;98903.50;;;21.45;56.76
75996;BME280;64681;49.738;9.004;2023-06-19T00:35:47;98908.47;;;21.50;56.62
75996;BME280;64681;49.738;9.004;2023-06-19T00:38:13;98908.72;;;21.60;56.38
75996;BME280;64681;49.738;9.004;2023-06-19T00:40:39;98917.28;;;21.58;56.86
75996;BME280;64681;49.738;9.004;2023-06-19T00:43:06;98908.94;;;21.45;56.68
75996;BME280;64681;49.738;9.004;2023-06-19T00:45:32;98918.94;;;21.52;56.63
75996;BME280;64681;49.738;9.004;2023-06-19T00:47:59;98905.00;;;21.26;57.48
75996;BME280;64681;49.738;9.004;2023-06-19T00:50:25;98922.78;;;21.31;57.29
75996;BME280;64681;49.738;9.004;2023-06-19T00:52:52;98918.09;;;21.08;57.83
75996;BME280;64681;49.738;9.004;2023-06-19T00:55:18;98924.78;;;21.03;57.62
75996;BME280;64681;49.738;9.004;2023-06-19T00:57:45;98924.47;;;20.97;57.29
75996;BME280;64681;49.738;9.004;2023-06-19T01:00:11;98920.63;;;20.95;56.96
75996;BME280;64681;49.738;9.004;2023-06-19T01:02:38;98916.88;;;20.85;57.04
75996;BME280;64681;49.738;9.004;2023-06-19T01:05:05;98924.28;;;20.53;57.74
75996;BME280;64681;49.738;9.004;2023-06-19T01:10:11;98919.31;;;20.48;58.37
75996;BME280;64681;49.738;9.004;2023-06-19T01:12:44;98924.56;;;20.32;58.82
75996;BME280;64681;49.738;9.004;2023-06-19T01:15:14;98926.72;;;20.44;58.63
75996;BME280;64681;49.738;9.004;2023-06-19T01:17:40;98922.38;;;20.19;59.74
75996;BME280;64681;49.738;9.004;2023-06-19T01:20:07;98908.56;;;20.10;60.24
75996;BME280;64681;49.738;9.004;2023-06-19T01:22:36;98919.97;;;19.90;60.42
75996;BME280;64681;49.738;9.004;2023-06-19T01:25:02;98915.59;;;19.62;61.22
75996;BME280;64681;49.738;9.004;2023-06-19T01:27:29;98918.72;;;19.60;60.74
75996;BME280;64681;49.738;9.004;2023-06-19T01:29:57;98919.94;;;19.52;61.61
75996;BME280;64681;49.738;9.004;2023-06-19T01:32:44;98921.69;;;19.32;61.62
75996;BME280;64681;49.738;9.004;2023-06-19T01:35:13;98923.66;;;19.24;62.12
75996;BME280;64681;49.738;9.004;2023-06-19T01:37:41;98921.34;;;19.26;61.86
75996;BME280;64681;49.738;9.004;2023-06-19T01:40:09;98930.69;;;19.18;61.87
75996;BME280;64681;49.738;9.004;2023-06-19T01:42:39;98919.25;;;18.95;62.30
75996;BME280;64681;49.738;9.004;2023-06-19T01:45:06;98924.69;;;18.92;62.24
75996;BME280;64681;49.738;9.004;2023-06-19T01:47:32;98927.00;;;18.93;62.03
75996;BME280;64681;49.738;9.004;2023-06-19T01:49:58;98930.88;;;18.89;61.95
75996;BME280;64681;49.738;9.004;2023-06-19T01:52:24;98926.56;;;18.98;61.56
75996;BME280;64681;49.738;9.004;2023-06-19T01:54:50;98940.81;;;19.10;61.17
75996;BME280;64681;49.738;9.004;2023-06-19T01:57:15;98939.28;;;19.05;60.31
75996;BME280;64681;49.738;9.004;2023-06-19T01:59:41;98936.16;;;19.10;60.61
75996;BME280;64681;49.738;9.004;2023-06-19T02:02:06;98934.56;;;19.17;60.14
75996;BME280;64681;49.738;9.004;2023-06-19T02:04:32;98940.66;;;19.28;59.99
75996;BME280;64681;49.738;9.004;2023-06-19T02:06:58;98936.44;;;19.23;59.86
75996;BME280;64681;49.738;9.004;2023-06-19T02:09:24;98946.75;;;19.39;59.69
75996;BME280;64681;49.738;9.004;2023-06-19T02:11:49;98956.81;;;19.39;59.82
75996;BME280;64681;49.738;9.004;2023-06-19T02:14:15;98951.44;;;19.35;60.18
75996;BME280;64681;49.738;9.004;2023-06-19T02:16:40;98967.25;;;19.40;60.08
75996;BME280;64681;49.738;9.004;2023-06-19T02:19:11;98963.09;;;19.25;60.67
75996;BME280;64681;49.738;9.004;2023-06-19T02:21:37;98968.91;;;19.27;60.40
75996;BME280;64681;49.738;9.004;2023-06-19T02:24:03;98965.47;;;19.23;60.39
75996;BME280;64681;49.738;9.004;2023-06-19T02:26:28;98968.94;;;19.23;60.71
75996;BME280;64681;49.738;9.004;2023-06-19T02:28:55;98962.47;;;19.10;60.34
75996;BME280;64681;49.738;9.004;2023-06-19T02:31:24;98964.69;;;19.22;59.77
75996;BME280;64681;49.738;9.004;2023-06-19T02:33:50;98973.94;;;19.25;59.42
75996;BME280;64681;49.738;9.004;2023-06-19T02:36:15;98978.16;;;19.29;58.79
75996;BME280;64681;49.738;9.004;2023-06-19T02:38:46;98981.59;;;19.37;58.66
75996;BME280;64681;49.738;9.004;2023-06-19T02:41:12;98987.75;;;19.41;58.74
75996;BME280;64681;49.738;9.004;2023-06-19T02:43:37;98988.22;;;19.29;59.06
75996;BME280;64681;49.738;9.004;2023-06-19T02:46:03;98999.75;;;19.37;58.57
75996;BME280;64681;49.738;9.004;2023-06-19T02:48:28;99009.03;;;19.39;59.10
75996;BME280;64681;49.738;9.004;2023-06-19T02:50:54;99010.06;;;19.04;59.39
75996;BME280;64681;49.738;9.004;2023-06-19T02:53:19;99015.28;;;19.33;59.05
75996;BME280;64681;49.738;9.004;2023-06-19T02:55:45;99017.97;;;19.33;58.17
75996;BME280;64681;49.738;9.004;2023-06-19T02:58:10;99010.25;;;19.35;58.30
75996;BME280;64681;49.738;9.004;2023-06-19T03:00:35;99009.78;;;19.43;58.22
75996;BME280;64681;49.738;9.004;2023-06-19T03:03:01;99017.41;;;19.56;57.73
75996;BME280;64681;49.738;9.004;2023-06-19T03:05:26;99012.00;;;19.56;57.25
75996;BME280;64681;49.738;9.004;2023-06-19T03:07:54;99021.63;;;19.60;57.19
75996;BME280;64681;49.738;9.004;2023-06-19T03:10:20;99024.22;;;19.75;56.67
75996;BME280;64681;49.738;9.004;2023-06-19T03:12:45;99027.31;;;19.77;57.34
75996;BME280;64681;49.738;9.004;2023-06-19T03:15:11;99033.53;;;19.70;56.94
75996;BME280;64681;49.738;9.004;2023-06-19T03:17:36;99029.72;;;19.64;56.75
75996;BME280;64681;49.738;9.004;2023-06-19T03:20:02;99032.25;;;19.89;56.57
75996;BME280;64681;49.738;9.004;2023-06-19T03:22:28;99035.66;;;20.01;56.32
75996;BME280;64681;49.738;9.004;2023-06-19T03:24:54;99045.91;;;20.20;56.25
75996;BME280;64681;49.738;9.004;2023-06-19T03:27:19;99049.00;;;20.22;55.66
75996;BME280;64681;49.738;9.004;2023-06-19T03:29:45;99050.41;;;20.34;55.45
75996;BME280;64681;49.738;9.004;2023-06-19T03:32:10;99051.44;;;20.48;55.18
75996;BME280;64681;49.738;9.004;2023-06-19T03:34:35;99045.63;;;20.49;55.76
75996;BME280;64681;49.738;9.004;2023-06-19T03:37:01;99055.22;;;20.54;55.87
75996;BME280;64681;49.738;9.004;2023-06-19T03:39:26;99057.00;;;20.68;54.51
75996;BME280;64681;49.738;9.004;2023-06-19T03:41:52;99054.75;;;20.63;54.81
75996;BME280;64681;49.738;9.004;2023-06-19T03:44:17;99064.97;;;20.86;55.40
75996;BME280;64681;49.738;9.004;2023-06-19T03:46:42;99070.66;;;20.95;54.79
75996;BME280;64681;49.738;9.004;2023-06-19T03:49:08;99064.66;;;20.80;54.31
75996;BME280;64681;49.738;9.004;2023-06-19T03:51:34;99071.00;;;21.01;54.47
75996;BME280;64681;49.738;9.004;2023-06-19T03:54:00;99083.41;;;21.02;55.50
75996;BME280;64681;49.738;9.004;2023-06-19T03:56:25;99079.56;;;20.99;55.02
75996;BME280;64681;49.738;9.004;2023-06-19T03:58:51;99076.09;;;20.95;55.06
75996;BME280;64681;49.738;9.004;2023-06-19T04:01:16;99080.13;;;21.14;55.02
75996;BME280;64681;49.738;9.004;2023-06-19T04:03:42;99084.28;;;21.23;55.06
75996;BME280;64681;49.738;9.004;2023-06-19T04:06:08;99097.84;;;21.23;55.13
75996;BME280;64681;49.738;9.004;2023-06-19T04:08:33;99098.22;;;21.25;55.14
75996;BME280;64681;49.738;9.004;2023-06-19T04:10:59;99099.31;;;21.31;54.79
75996;BME280;64681;49.738;9.004;2023-06-19T04:13:24;99105.44;;;21.35;55.01
75996;BME280;64681;49.738;9.004;2023-06-19T04:15:51;99101.88;;;21.42;54.88
75996;BME280;64681;49.738;9.004;2023-06-19T04:18:17;99099.00;;;21.53;54.18
75996;BME280;64681;49.738;9.004;2023-06-19T04:20:43;99102.03;;;21.58;53.95
75996;BME280;64681;49.738;9.004;2023-06-19T04:23:08;99096.75;;;21.75;53.77
75996;BME280;64681;49.738;9.004;2023-06-19T04:25:34;99096.28;;;21.80;53.76
75996;BME280;64681;49.738;9.004;2023-06-19T04:28:00;99096.75;;;21.98;53.39
75996;BME280;64681;49.738;9.004;2023-06-19T04:30:29;99102.09;;;22.06;53.77
75996;BME280;64681;49.738;9.004;2023-06-19T04:32:54;99100.00;;;22.13;53.95
75996;BME280;64681;49.738;9.004;2023-06-19T04:35:20;99107.16;;;22.27;53.63
75996;BME280;64681;49.738;9.004;2023-06-19T04:37:45;99111.13;;;22.23;53.13
75996;BME280;64681;49.738;9.004;2023-06-19T04:40:13;99112.03;;;22.36;52.18
75996;BME280;64681;49.738;9.004;2023-06-19T04:42:39;99111.13;;;22.23;52.83
75996;BME280;64681;49.738;9.004;2023-06-19T04:45:05;99114.88;;;22.29;53.42
75996;BME280;64681;49.738;9.004;2023-06-19T04:47:33;99127.97;;;22.14;53.94
75996;BME280;64681;49.738;9.004;2023-06-19T04:49:59;99127.72;;;22.28;53.72
75996;BME280;64681;49.738;9.004;2023-06-19T04:52:25;99129.09;;;22.40;53.68
75996;BME280;64681;49.738;9.004;2023-06-19T04:54:51;99135.03;;;22.55;53.93
75996;BME280;64681;49.738;9.004;2023-06-19T04:57:16;99136.47;;;22.84;53.26
75996;BME280;64681;49.738;9.004;2023-06-19T04:59:43;99138.00;;;22.85;53.43
75996;BME280;64681;49.738;9.004;2023-06-19T05:02:10;99145.97;;;22.96;53.03
75996;BME280;64681;49.738;9.004;2023-06-19T05:04:35;99147.63;;;23.10;52.71
75996;BME280;64681;49.738;9.004;2023-06-19T05:07:01;99148.09;;;23.45;52.62
75996;BME280;64681;49.738;9.004;2023-06-19T05:09:27;99154.94;;;23.86;51.64
75996;BME280;64681;49.738;9.004;2023-06-19T05:11:52;99147.22;;;24.01;51.63
75996;BME280;64681;49.738;9.004;2023-06-19T05:14:18;99151.13;;;24.16;50.91
75996;BME280;64681;49.738;9.004;2023-06-19T05:16:43;99146.69;;;24.23;51.12
75996;BME280;64681;49.738;9.004;2023-06-19T05:19:08;99150.63;;;24.68;50.19
75996;BME280;64681;49.738;9.004;2023-06-19T05:21:34;99157.22;;;24.83;49.17
75996;BME280;64681;49.738;9.004;2023-06-19T05:23:59;99158.09;;;25.22;48.43
75996;BME280;64681;49.738;9.004;2023-06-19T05:26:25;99162.72;;;25.64;47.98
75996;BME280;64681;49.738;9.004;2023-06-19T05:28:51;99157.56;;;26.18;47.97
75996;BME280;64681;49.738;9.004;2023-06-19T05:31:17;99159.56;;;26.39;46.39
75996;BME280;64681;49.738;9.004;2023-06-19T05:33:44;99165.06;;;26.62;44.74
75996;BME280;64681;49.738;9.004;2023-06-19T05:36:10;99164.16;;;26.78;45.34
75996;BME280;64681;49.738;9.004;2023-06-19T05:38:35;99158.88;;;26.83;45.68
75996;BME280;64681;49.738;9.004;2023-06-19T05:41:02;99152.88;;;26.98;45.17
75996;BME280;64681;49.738;9.004;2023-06-19T05:43:27;99150.88;;;26.98;45.77
75996;BME280;64681;49.738;9.004;2023-06-19T05:45:53;99155.53;;;26.89;46.29
75996;BME280;64681;49.738;9.004;2023-06-19T05:48:21;99165.69;;;26.66;47.85
75996;BME280;64681;49.738;9.004;2023-06-19T05:50:46;99161.19;;;26.72;47.08
75996;BME280;64681;49.738;9.004;2023-06-19T05:53:12;99160.34;;;26.62;46.91
75996;BME280;64681;49.738;9.004;2023-06-19T05:55:37;99161.34;;;26.55;47.96
75996;BME280;64681;49.738;9.004;2023-06-19T05:58:03;99170.47;;;26.04;48.50
75996;BME280;64681;49.738;9.004;2023-06-19T06:00:29;99170.25;;;26.12;48.39
75996;BME280;64681;49.738;9.004;2023-06-19T06:02:56;99181.13;;;26.37;47.37
75996;BME280;64681;49.738;9.004;2023-06-19T06:05:28;99183.25;;;26.55;47.10
75996;BME280;64681;49.738;9.004;2023-06-19T06:07:54;99188.34;;;26.79;47.37
75996;BME280;64681;49.738;9.004;2023-06-19T06:10:21;99192.88;;;26.60;46.69
75996;BME280;64681;49.738;9.004;2023-06-19T06:12:47;99189.66;;;26.52;47.61
75996;BME280;64681;49.738;9.004;2023-06-19T06:15:13;99180.06;;;26.22;47.82
75996;BME280;64681;49.738;9.004;2023-06-19T06:17:39;99184.16;;;26.52;47.66
75996;BME280;64681;49.738;9.004;2023-06-19T06:20:05;99172.44;;;27.41;46.53
75996;BME280;64681;49.738;9.004;2023-06-19T06:22:36;99186.75;;;29.01;43.67
75996;BME280;64681;49.738;9.004;2023-06-19T06:25:02;99190.13;;;30.39;40.40
75996;BME280;64681;49.738;9.004;2023-06-19T06:27:27;99194.72;;;31.12;38.63
75996;BME280;64681;49.738;9.004;2023-06-19T06:29:53;99182.91;;;32.54;36.21
75996;BME280;64681;49.738;9.004;2023-06-19T06:32:18;99188.00;;;33.83;34.17
75996;BME280;64681;49.738;9.004;2023-06-19T06:34:44;99187.34;;;34.77;31.66
75996;BME280;64681;49.738;9.004;2023-06-19T06:37:09;99197.22;;;35.07;32.16
75996;BME280;64681;49.738;9.004;2023-06-19T06:39:35;99202.81;;;35.41;30.82
75996;BME280;64681;49.738;9.004;2023-06-19T06:42:00;99204.81;;;35.52;30.65
75996;BME280;64681;49.738;9.004;2023-06-19T06:44:26;99210.34;;;35.29;31.15
75996;BME280;64681;49.738;9.004;2023-06-19T06:46:51;99212.22;;;36.13;31.34
75996;BME280;64681;49.738;9.004;2023-06-19T06:49:17;99206.81;;;36.86;29.01
75996;BME280;64681;49.738;9.004;2023-06-19T06:51:42;99209.97;;;36.12;30.59
75996;BME280;64681;49.738;9.004;2023-06-19T06:54:08;99206.78;;;35.68;30.55
75996;BME280;64681;49.738;9.004;2023-06-19T06:56:33;99202.03;;;34.23;32.26
75996;BME280;64681;49.738;9.004;2023-06-19T06:58:59;99194.25;;;32.14;35.45
75996;BME280;64681;49.738;9.004;2023-06-19T07:01:24;99206.63;;;31.33;38.11
75996;BME280;64681;49.738;9.004;2023-06-19T07:03:49;99205.50;;;30.55;38.58
75996;BME280;64681;49.738;9.004;2023-06-19T07:06:15;99202.69;;;30.16;39.38
75996;BME280;64681;49.738;9.004;2023-06-19T07:08:40;99198.63;;;30.51;39.67
75996;BME280;64681;49.738;9.004;2023-06-19T07:11:07;99196.69;;;32.74;35.97
75996;BME280;64681;49.738;9.004;2023-06-19T07:13:32;99198.00;;;35.07;32.52
75996;BME280;64681;49.738;9.004;2023-06-19T07:15:58;99188.03;;;36.56;29.88
75996;BME280;64681;49.738;9.004;2023-06-19T07:18:24;99191.91;;;38.57;28.21
75996;BME280;64681;49.738;9.004;2023-06-19T07:20:50;99191.84;;;39.68;26.17
75996;BME280;64681;49.738;9.004;2023-06-19T07:23:15;99205.19;;;40.50;25.24
75996;BME280;64681;49.738;9.004;2023-06-19T07:25:41;99212.06;;;41.47;24.08
75996;BME280;64681;49.738;9.004;2023-06-19T07:28:06;99223.03;;;42.47;22.71
75996;BME280;64681;49.738;9.004;2023-06-19T07:30:32;99209.22;;;43.11;21.04
75996;BME280;64681;49.738;9.004;2023-06-19T07:32:57;99214.03;;;42.41;22.86
75996;BME280;64681;49.738;9.004;2023-06-19T07:35:23;99215.44;;;43.41;21.85
75996;BME280;64681;49.738;9.004;2023-06-19T07:37:48;99218.88;;;43.88;20.98
75996;BME280;64681;49.738;9.004;2023-06-19T07:40:14;99214.31;;;43.28;21.79
75996;BME280;64681;49.738;9.004;2023-06-19T07:42:39;99214.06;;;42.64;21.77
75996;BME280;64681;49.738;9.004;2023-06-19T07:45:05;99210.81;;;40.71;24.00
75996;BME280;64681;49.738;9.004;2023-06-19T07:47:31;99211.84;;;39.99;24.83
75996;BME280;64681;49.738;9.004;2023-06-19T07:49:56;99196.16;;;38.77;25.96
75996;BME280;64681;49.738;9.004;2023-06-19T07:52:22;99203.03;;;40.22;25.89
75996;BME280;64681;49.738;9.004;2023-06-19T07:54:55;99209.19;;;41.68;23.54
75996;BME280;64681;49.738;9.004;2023-06-19T07:57:21;99211.09;;;41.73;23.74
75996;BME280;64681;49.738;9.004;2023-06-19T07:59:49;99217.13;;;41.85;23.69
75996;BME280;64681;49.738;9.004;2023-06-19T08:02:15;99202.84;;;42.64;22.30
75996;BME280;64681;49.738;9.004;2023-06-19T08:04:40;99207.78;;;43.26;21.61
75996;BME280;64681;49.738;9.004;2023-06-19T08:07:06;99212.03;;;43.66;21.88
75996;BME280;64681;49.738;9.004;2023-06-19T08:09:32;99216.06;;;44.36;20.97
75996;BME280;64681;49.738;9.004;2023-06-19T08:11:57;99219.69;;;45.13;19.94
75996;BME280;64681;49.738;9.004;2023-06-19T08:14:23;99220.78;;;44.34;20.36
75996;BME280;64681;49.738;9.004;2023-06-19T08:16:48;99232.78;;;44.34;20.89
75996;BME280;64681;49.738;9.004;2023-06-19T08:19:14;99229.44;;;44.28;20.84
75996;BME280;64681;49.738;9.004;2023-06-19T08:21:39;99231.13;;;44.23;20.99
75996;BME280;64681;49.738;9.004;2023-06-19T08:24:05;99241.28;;;43.00;22.06
75996;BME280;64681;49.738;9.004;2023-06-19T08:26:31;99239.97;;;42.78;22.53
75996;BME280;64681;49.738;9.004;2023-06-19T08:28:56;99241.47;;;43.02;22.10
75996;BME280;64681;49.738;9.004;2023-06-19T08:31:22;99245.25;;;40.45;24.80
75996;BME280;64681;49.738;9.004;2023-06-19T08:33:54;99248.16;;;38.80;27.03
75996;BME280;64681;49.738;9.004;2023-06-19T08:36:20;99246.22;;;37.62;27.75
75996;BME280;64681;49.738;9.004;2023-06-19T08:38:45;99245.31;;;36.23;30.39
75996;BME280;64681;49.738;9.004;2023-06-19T08:41:15;99242.66;;;35.15;31.80
75996;BME280;64681;49.738;9.004;2023-06-19T08:43:41;99249.03;;;33.95;33.27
75996;BME280;64681;49.738;9.004;2023-06-19T08:46:13;99248.84;;;32.81;35.55
75996;BME280;64681;49.738;9.004;2023-06-19T08:48:39;99243.63;;;32.68;36.02
75996;BME280;64681;49.738;9.004;2023-06-19T08:51:06;99241.81;;;31.68;37.61
75996;BME280;64681;49.738;9.004;2023-06-19T08:53:34;99238.59;;;31.24;39.62
75996;BME280;64681;49.738;9.004;2023-06-19T08:56:00;99240.22;;;31.97;37.95
75996;BME280;64681;49.738;9.004;2023-06-19T08:58:25;99240.97;;;32.33;37.00
75996;BME280;64681;49.738;9.004;2023-06-19T09:00:51;99247.66;;;32.47;36.88
75996;BME280;64681;49.738;9.004;2023-06-19T09:03:20;99260.25;;;31.92;38.72
75996;BME280;64681;49.738;9.004;2023-06-19T09:05:50;99253.59;;;31.83;37.82
75996;BME280;64681;49.738;9.004;2023-06-19T09:08:16;99255.03;;;31.34;38.92
75996;BME280;64681;49.738;9.004;2023-06-19T09:10:43;99259.44;;;30.71;39.69
75996;BME280;64681;49.738;9.004;2023-06-19T09:13:08;99254.53;;;30.51;40.49
75996;BME280;64681;49.738;9.004;2023-06-19T09:15:36;99260.41;;;30.35;41.28
75996;BME280;64681;49.738;9.004;2023-06-19T09:18:09;99262.94;;;30.47;41.15
75996;BME280;64681;49.738;9.004;2023-06-19T09:20:40;99258.34;;;30.20;42.57
75996;BME280;64681;49.738;9.004;2023-06-19T09:23:10;99266.63;;;30.44;42.14
75996;BME280;64681;49.738;9.004;2023-06-19T09:25:50;99261.59;;;31.51;39.52
75996;BME280;64681;49.738;9.004;2023-06-19T09:28:20;99254.56;;;32.57;38.05
75996;BME280;64681;49.738;9.004;2023-06-19T09:31:00;99257.84;;;33.29;36.56
75996;BME280;64681;49.738;9.004;2023-06-19T09:33:31;99263.00;;;33.80;36.11
75996;BME280;64681;49.738;9.004;2023-06-19T09:35:58;99265.75;;;33.42;35.51
75996;BME280;64681;49.738;9.004;2023-06-19T09:38:26;99265.22;;;33.11;36.71
75996;BME280;64681;49.738;9.004;2023-06-19T09:40:52;99260.50;;;32.29;37.50
75996;BME280;64681;49.738;9.004;2023-06-19T09:43:23;99257.47;;;32.68;37.62
75996;BME280;64681;49.738;9.004;2023-06-19T09:45:49;99262.91;;;32.63;37.31
75996;BME280;64681;49.738;9.004;2023-06-19T09:48:19;99264.38;;;32.02;38.77
75996;BME280;64681;49.738;9.004;2023-06-19T09:50:50;99261.63;;;30.82;40.30
75996;BME280;64681;49.738;9.004;2023-06-19T09:53:20;99257.94;;;31.00;40.32
75996;BME280;64681;49.738;9.004;2023-06-19T09:55:48;99254.00;;;31.76;39.29
75996;BME280;64681;49.738;9.004;2023-06-19T09:58:17;99250.28;;;32.35;39.03
75996;BME280;64681;49.738;9.004;2023-06-19T10:00:45;99264.19;;;32.41;38.60
75996;BME280;64681;49.738;9.004;2023-06-19T10:03:12;99261.72;;;32.08;37.84
75996;BME280;64681;49.738;9.004;2023-06-19T10:05:38;99249.88;;;32.22;38.53
75996;BME280;64681;49.738;9.004;2023-06-19T10:08:03;99252.53;;;31.81;39.06
75996;BME280;64681;49.738;9.004;2023-06-19T10:10:30;99265.88;;;32.18;39.53
75996;BME280;64681;49.738;9.004;2023-06-19T10:12:58;99257.66;;;32.24;39.35
75996;BME280;64681;49.738;9.004;2023-06-19T10:15:28;99267.56;;;32.30;38.31
75996;BME280;64681;49.738;9.004;2023-06-19T10:18:01;99269.59;;;32.15;38.16
75996;BME280;64681;49.738;9.004;2023-06-19T10:20:35;99259.53;;;32.53;38.21
75996;BME280;64681;49.738;9.004;2023-06-19T10:23:05;99268.03;;;32.49;38.39
75996;BME280;64681;49.738;9.004;2023-06-19T10:25:33;99265.72;;;32.83;37.14
75996;BME280;64681;49.738;9.004;2023-06-19T10:27:59;99261.25;;;32.92;37.00
75996;BME280;64681;49.738;9.004;2023-06-19T10:30:25;99269.84;;;32.53;37.74
75996;BME280;64681;49.738;9.004;2023-06-19T10:32:51;99274.34;;;31.64;40.13
75996;BME280;64681;49.738;9.004;2023-06-19T10:35:18;99275.84;;;31.95;39.34
75996;BME280;64681;49.738;9.004;2023-06-19T10:37:47;99268.66;;;32.03;38.43
75996;BME280;64681;49.738;9.004;2023-06-19T10:40:13;99255.41;;;32.63;37.57
75996;BME280;64681;49.738;9.004;2023-06-19T10:42:40;99263.75;;;32.28;39.09
75996;BME280;64681;49.738;9.004;2023-06-19T10:45:08;99251.72;;;32.72;37.76
75996;BME280;64681;49.738;9.004;2023-06-19T10:47:43;99249.91;;;33.16;36.22
75996;BME280;64681;49.738;9.004;2023-06-19T10:50:11;99257.84;;;33.29;36.63
75996;BME280;64681;49.738;9.004;2023-06-19T10:52:43;99256.81;;;33.58;35.73
75996;BME280;64681;49.738;9.004;2023-06-19T10:55:09;99249.75;;;33.52;35.79
75996;BME280;64681;49.738;9.004;2023-06-19T10:57:35;99243.03;;;33.32;36.16
75996;BME280;64681;49.738;9.004;2023-06-19T11:00:02;99248.00;;;32.55;37.77
75996;BME280;64681;49.738;9.004;2023-06-19T11:02:34;99246.34;;;33.10;37.10
75996;BME280;64681;49.738;9.004;2023-06-19T11:05:02;99240.25;;;33.32;35.27
75996;BME280;64681;49.738;9.004;2023-06-19T11:07:28;99231.69;;;33.04;36.48
75996;BME280;64681;49.738;9.004;2023-06-19T11:09:54;99232.16;;;33.28;35.89
75996;BME280;64681;49.738;9.004;2023-06-19T11:12:22;99229.34;;;33.55;34.53
75996;BME280;64681;49.738;9.004;2023-06-19T11:14:50;99223.72;;;33.11;36.36
75996;BME280;64681;49.738;9.004;2023-06-19T11:17:16;99218.59;;;33.30;36.57
75996;BME280;64681;49.738;9.004;2023-06-19T11:19:43;99217.69;;;32.87;36.00
75996;BME280;64681;49.738;9.004;2023-06-19T11:22:10;99219.63;;;33.33;35.49
75996;BME280;64681;49.738;9.004;2023-06-19T11:24:36;99215.63;;;33.72;33.25
75996;BME280;64681;49.738;9.004;2023-06-19T11:27:02;99215.06;;;33.30;35.68
75996;BME280;64681;49.738;9.004;2023-06-19T11:29:31;99217.59;;;33.60;35.22
75996;BME280;64681;49.738;9.004;2023-06-19T11:32:15;99214.50;;;33.52;35.34
75996;BME280;64681;49.738;9.004;2023-06-19T11:34:42;99215.97;;;33.48;36.03
75996;BME280;64681;49.738;9.004;2023-06-19T11:37:16;99220.06;;;33.58;34.54
75996;BME280;64681;49.738;9.004;2023-06-19T11:39:48;99212.25;;;33.24;35.82
75996;BME280;64681;49.738;9.004;2023-06-19T11:42:15;99210.75;;;33.55;34.89
75996;BME280;64681;49.738;9.004;2023-06-19T11:45:02;99207.69;;;33.85;34.67
75996;BME280;64681;49.738;9.004;2023-06-19T11:47:30;99198.78;;;33.75;34.18
75996;BME280;64681;49.738;9.004;2023-06-19T11:49:57;99205.34;;;33.78;34.60
75996;BME280;64681;49.738;9.004;2023-06-19T11:52:23;99195.28;;;33.37;35.72
75996;BME280;64681;49.738;9.004;2023-06-19T11:54:48;99190.38;;;32.06;37.89
75996;BME280;64681;49.738;9.004;2023-06-19T11:57:15;99194.13;;;32.24;38.63
75996;BME280;64681;49.738;9.004;2023-06-19T11:59:41;99193.78;;;33.42;37.13
75996;BME280;64681;49.738;9.004;2023-06-19T12:02:07;99196.41;;;33.57;35.14
75996;BME280;64681;49.738;9.004;2023-06-19T12:04:34;99198.25;;;32.55;37.06
75996;BME280;64681;49.738;9.004;2023-06-19T12:07:00;99194.06;;;32.86;36.74
75996;BME280;64681;49.738;9.004;2023-06-19T12:09:25;99196.31;;;33.40;34.59
75996;BME280;64681;49.738;9.004;2023-06-19T12:11:51;99190.38;;;33.26;34.88
75996;BME280;64681;49.738;9.004;2023-06-19T12:14:16;99193.53;;;33.40;34.25
75996;BME280;64681;49.738;9.004;2023-06-19T12:16:45;99186.59;;;32.71;35.95
75996;BME280;64681;49.738;9.004;2023-06-19T12:19:10;99187.81;;;32.64;35.29
75996;BME280;64681;49.738;9.004;2023-06-19T12:21:36;99182.50;;;32.40;35.53
75996;BME280;64681;49.738;9.004;2023-06-19T12:24:02;99184.69;;;31.95;36.68
75996;BME280;64681;49.738;9.004;2023-06-19T12:26:27;99180.34;;;32.50;36.61
75996;BME280;64681;49.738;9.004;2023-06-19T12:28:53;99177.53;;;32.44;36.82
75996;BME280;64681;49.738;9.004;2023-06-19T12:31:18;99176.97;;;31.99;38.44
75996;BME280;64681;49.738;9.004;2023-06-19T12:33:44;99172.69;;;32.39;37.05
75996;BME280;64681;49.738;9.004;2023-06-19T12:36:14;99168.53;;;32.08;38.09
75996;BME280;64681;49.738;9.004;2023-06-19T12:38:40;99159.22;;;32.26;36.78
75996;BME280;64681;49.738;9.004;2023-06-19T12:41:06;99163.94;;;32.67;36.21
75996;BME280;64681;49.738;9.004;2023-06-19T12:43:31;99175.25;;;32.43;35.96
75996;BME280;64681;49.738;9.004;2023-06-19T12:45:57;99170.56;;;32.75;34.07
75996;BME280;64681;49.738;9.004;2023-06-19T12:48:25;99172.19;;;32.61;34.94
75996;BME280;64681;49.738;9.004;2023-06-19T12:50:50;99172.69;;;32.60;35.22
75996;BME280;64681;49.738;9.004;2023-06-19T12:53:16;99176.69;;;31.76;36.04
75996;BME280;64681;49.738;9.004;2023-06-19T12:55:41;99179.09;;;31.89;36.34
75996;BME280;64681;49.738;9.004;2023-06-19T12:58:08;99169.94;;;32.18;35.85
75996;BME280;64681;49.738;9.004;2023-06-19T13:00:33;99175.94;;;32.38;35.13